X  Chiuso Dati meteorologici dell'aviazione (METAR)     LGRX Patras Araxos Agamemnon Airport
Temperatura
13°C Temperatura
5°C Punto di rugiada
59% Umidità



Vento
5 KM/O
3 MPH
1 M/S
3 KTS



Calmo
N
Condizioni attuali

Parzialmente nuvoloso Parzialmente nuvoloso
Pressione 1021.92 (hPa) - 30.18 (inHg)
Visibilità 6.2 (miglio) - 10 (km)
Aeroporto
Codice-Aeroporto LGRX

Posizione: Patras Araxos Agamemnon Airport
Distanza: 108 (km)

Metar:
LGRX 031220Z VRB03KT 9999 FEW020 13/05 Q1022

Ore: 03-02-2023 14:20 EET